Time;durP1;ratioP1;P1;durP2;ratioP2;P2;SDS_P1;SDS_P2;PMS_P1;PMS_P2;Temp;Humidity;BMP_temperature;BMP_pressure;BME280_temperature;BME280_humidity;BME280_pressure;Samples;Min_cycle;Max_cycle;Signal;HPM_P1;HPM_P2
2023/07/26 00:01:57;;;;;;;24.02;22.75;;;;;;;;;;5082118;28;20029;-73
2023/07/26 00:04:23;;;;;;;20.45;19.35;;;;;;;;;;5074080;28;20548;-74
2023/07/26 00:06:48;;;;;;;20.00;18.90;;;;;;;;;;5080023;28;20036;-74
2023/07/26 00:09:13;;;;;;;17.30;16.35;;;;;;;;;;5078276;28;20040;-74
2023/07/26 00:11:39;;;;;;;15.20;14.32;;;;;;;;;;5076919;28;20111;-74
2023/07/26 00:14:05;;;;;;;33.17;31.42;;;;;;;;;;5075528;28;20123;-74
2023/07/26 00:16:31;;;;;;;27.35;25.90;;;;;;;;;;5075563;28;20462;-68
2023/07/26 00:18:57;;;;;;;24.58;23.25;;;;;;;;;;5078745;28;20402;-74
2023/07/26 00:21:23;;;;;;;29.30;27.77;;;;;;;;;;5079480;28;20097;-68
2023/07/26 00:23:48;;;;;;;29.00;27.50;;;;;;;;;;5078264;28;20209;-73
2023/07/26 00:26:14;;;;;;;15.48;14.57;;;;;;;;;;5076196;28;20056;-67
2023/07/26 00:28:39;;;;;;;15.30;14.40;;;;;;;;;;5078128;28;20461;-67
2023/07/26 00:31:05;;;;;;;14.52;13.73;;;;;;;;;;5077564;28;20020;-67
2023/07/26 00:33:30;;;;;;;13.30;12.50;;;;;;;;;;5080446;28;20465;-68
2023/07/26 00:35:56;;;;;;;15.73;14.82;;;;;;;;;;5085651;28;20056;-67
2023/07/26 00:38:21;;;;;;;16.45;15.55;;;;;;;;;;5078173;28;20400;-73
2023/07/26 00:40:46;;;;;;;20.15;19.05;;;;;;;;;;5076826;28;20492;-74
2023/07/26 00:43:13;;;;;;;23.98;22.67;;;;;;;;;;5077430;28;20040;-74
2023/07/26 00:45:40;;;;;;;42.13;39.88;;;;;;;;;;5080328;28;20051;-74
2023/07/26 00:48:06;;;;;;;34.95;32.25;;;;;;;;;;5077814;28;20028;-72
2023/07/26 00:50:32;;;;;;;62.50;59.38;;;;;;;;;;5075235;28;20040;-73
2023/07/26 00:52:57;;;;;;;41.72;39.58;;;;;;;;;;5079573;28;20344;-73
2023/07/26 00:55:24;;;;;;;60.13;57.13;;;;;;;;;;5074208;28;20422;-73
2023/07/26 00:57:50;;;;;;;37.05;35.15;;;;;;;;;;5074103;28;20039;-73
2023/07/26 01:00:16;;;;;;;29.88;28.33;;;;;;;;;;5080315;28;20036;-73
2023/07/26 01:02:42;;;;;;;31.02;29.25;;;;;;;;;;5078485;28;20493;-73
2023/07/26 01:05:08;;;;;;;46.25;43.90;;;;;;;;;;5076954;28;20039;-73
2023/07/26 01:07:51;;;;;;;51.00;48.30;;;;;;;;;;5076301;28;20036;-73
2023/07/26 01:10:41;;;;;;;49.78;47.22;;;;;;;;;;5077819;28;20369;-74
2023/07/26 01:13:27;;;;;;;47.33;44.93;;;;;;;;;;5075876;28;20087;-73
2023/07/26 01:15:53;;;;;;;47.88;45.25;;;;;;;;;;5080709;28;20732;-73
2023/07/26 01:18:18;;;;;;;49.42;46.88;;;;;;;;;;5076905;28;20267;-73
2023/07/26 01:20:44;;;;;;;50.60;47.83;;;;;;;;;;5074068;28;20032;-73
2023/07/26 01:23:10;;;;;;;49.35;46.70;;;;;;;;;;5076801;28;20036;-69
2023/07/26 01:25:35;;;;;;;50.92;48.38;;;;;;;;;;5077522;28;20032;-68
2023/07/26 01:28:01;;;;;;;57.38;54.50;;;;;;;;;;5075607;28;20043;-68
2023/07/26 01:30:29;;;;;;;73.22;69.50;;;;;;;;;;5076832;28;20063;-68
2023/07/26 01:32:57;;;;;;;80.03;76.03;;;;;;;;;;5075518;28;20134;-68
2023/07/26 01:35:23;;;;;;;87.97;83.55;;;;;;;;;;5075783;28;20036;-72
2023/07/26 01:37:50;;;;;;;79.38;75.32;;;;;;;;;;5076402;28;20112;-72
2023/07/26 01:40:17;;;;;;;88.95;84.47;;;;;;;;;;5078208;28;20032;-72
2023/07/26 01:42:42;;;;;;;93.82;89.05;;;;;;;;;;5079181;28;20470;-68
2023/07/26 01:45:09;;;;;;;111.70;106.10;;;;;;;;;;5074017;28;20032;-73
2023/07/26 01:47:35;;;;;;;107.63;102.22;;;;;;;;;;5077415;28;20408;-73
2023/07/26 01:50:00;;;;;;;107.53;102.13;;;;;;;;;;5072927;28;20131;-73
2023/07/26 01:52:25;;;;;;;105.68;100.38;;;;;;;;;;5073683;28;20443;-72
2023/07/26 01:54:51;;;;;;;102.97;97.80;;;;;;;;;;5078955;28;20115;-72
2023/07/26 01:57:16;;;;;;;100.15;95.10;;;;;;;;;;5067366;28;20039;-72
2023/07/26 01:59:42;;;;;;;122.03;115.90;;;;;;;;;;5076450;28;20051;-69
2023/07/26 02:02:07;;;;;;;164.68;156.45;;;;;;;;;;5078135;28;20494;-68
2023/07/26 02:04:32;;;;;;;171.50;162.93;;;;;;;;;;5072068;28;20074;-67
2023/07/26 02:06:58;;;;;;;113.10;107.40;;;;;;;;;;5075190;28;20128;-67
2023/07/26 02:09:23;;;;;;;129.65;123.15;;;;;;;;;;5077759;28;20446;-68
2023/07/26 02:11:49;;;;;;;145.13;137.85;;;;;;;;;;5080217;28;20279;-68
2023/07/26 02:14:16;;;;;;;136.65;129.73;;;;;;;;;;5075007;28;20040;-68
2023/07/26 02:16:41;;;;;;;153.63;145.93;;;;;;;;;;5073214;28;20020;-68
2023/07/26 02:19:07;;;;;;;164.48;156.18;;;;;;;;;;5077542;28;20457;-68
2023/07/26 02:21:33;;;;;;;184.52;175.25;;;;;;;;;;5072681;28;20055;-68
2023/07/26 02:23:58;;;;;;;195.23;185.40;;;;;;;;;;5074217;28;20458;-68
2023/07/26 02:26:23;;;;;;;167.02;158.68;;;;;;;;;;5075753;28;20408;-68
2023/07/26 02:28:49;;;;;;;170.55;161.75;;;;;;;;;;5075289;28;20028;-72
2023/07/26 02:31:14;;;;;;;182.35;173.18;;;;;;;;;;5077628;28;20047;-72
2023/07/26 02:33:39;;;;;;;201.40;189.38;;;;;;;;;;5077371;28;20039;-73
2023/07/26 02:36:05;;;;;;;192.43;182.73;;;;;;;;;;5076058;28;20450;-72
2023/07/26 02:38:30;;;;;;;192.40;182.73;;;;;;;;;;5073153;28;20370;-68
2023/07/26 02:40:55;;;;;;;181.20;172.05;;;;;;;;;;5076215;28;20365;-67
2023/07/26 02:43:21;;;;;;;190.77;181.15;;;;;;;;;;5076199;28;20504;-72
2023/07/26 02:45:47;;;;;;;176.48;167.48;;;;;;;;;;5074485;28;20039;-72
2023/07/26 02:48:12;;;;;;;164.30;155.77;;;;;;;;;;5072597;28;20083;-68
2023/07/26 02:50:37;;;;;;;183.55;174.30;;;;;;;;;;5073832;28;20095;-68
2023/07/26 02:53:03;;;;;;;175.88;166.95;;;;;;;;;;5075410;28;20032;-68
2023/07/26 02:55:28;;;;;;;171.35;162.65;;;;;;;;;;5075360;28;20028;-68
2023/07/26 02:57:54;;;;;;;165.70;156.95;;;;;;;;;;5073768;28;20353;-68
2023/07/26 03:00:19;;;;;;;183.55;174.25;;;;;;;;;;5071730;28;20115;-72
2023/07/26 03:02:45;;;;;;;176.50;167.52;;;;;;;;;;5082690;28;20454;-72
2023/07/26 03:05:10;;;;;;;157.35;149.25;;;;;;;;;;5074773;28;20036;-72
2023/07/26 03:07:35;;;;;;;159.88;151.65;;;;;;;;;;5074947;28;20059;-72
2023/07/26 03:10:01;;;;;;;175.40;166.45;;;;;;;;;;5076143;28;20163;-72
2023/07/26 03:12:26;;;;;;;167.18;158.63;;;;;;;;;;5076800;28;20060;-72
2023/07/26 03:14:51;;;;;;;152.85;145.00;;;;;;;;;;5077085;28;20032;-72
2023/07/26 03:17:17;;;;;;;146.45;138.90;;;;;;;;;;5076033;28;20036;-72
2023/07/26 03:19:42;;;;;;;138.98;131.82;;;;;;;;;;5076063;28;20032;-72
2023/07/26 03:22:07;;;;;;;133.50;126.65;;;;;;;;;;5072035;28;20454;-72
2023/07/26 03:24:33;;;;;;;134.07;127.15;;;;;;;;;;5073600;28;20124;-68
2023/07/26 03:26:58;;;;;;;134.82;127.82;;;;;;;;;;5077356;28;20042;-68
2023/07/26 03:29:26;;;;;;;126.57;120.05;;;;;;;;;;5073037;28;20036;-72
2023/07/26 03:31:52;;;;;;;126.30;119.88;;;;;;;;;;5074947;28;20035;-67
2023/07/26 03:34:17;;;;;;;124.72;118.32;;;;;;;;;;5075481;28;20363;-67
2023/07/26 03:36:42;;;;;;;124.80;118.35;;;;;;;;;;5082284;28;20115;-67
2023/07/26 03:39:08;;;;;;;102.90;97.60;;;;;;;;;;5073879;28;20025;-67
2023/07/26 03:41:33;;;;;;;109.28;103.63;;;;;;;;;;5074949;28;20043;-67
2023/07/26 03:43:58;;;;;;;117.28;111.25;;;;;;;;;;5078654;28;20527;-71
2023/07/26 03:46:24;;;;;;;109.18;103.53;;;;;;;;;;5076903;28;20032;-71
2023/07/26 03:48:49;;;;;;;106.30;100.82;;;;;;;;;;5074527;28;20161;-71
2023/07/26 03:51:15;;;;;;;100.95;95.72;;;;;;;;;;5077362;28;20256;-71
2023/07/26 03:53:40;;;;;;;111.72;106.00;;;;;;;;;;5075878;28;20105;-71
2023/07/26 03:56:05;;;;;;;99.50;94.30;;;;;;;;;;5078994;28;20473;-71
2023/07/26 03:58:31;;;;;;;97.07;92.07;;;;;;;;;;5077651;28;20024;-68
2023/07/26 04:00:56;;;;;;;121.32;115.05;;;;;;;;;;5079715;28;20093;-67
2023/07/26 04:03:21;;;;;;;109.82;104.13;;;;;;;;;;5077350;28;20135;-67
2023/07/26 04:05:47;;;;;;;107.20;101.57;;;;;;;;;;5077331;28;20071;-70
2023/07/26 04:08:12;;;;;;;115.28;109.32;;;;;;;;;;5076000;28;20048;-67
2023/07/26 04:10:37;;;;;;;97.95;92.85;;;;;;;;;;5076762;28;20045;-69
2023/07/26 04:13:03;;;;;;;103.97;98.63;;;;;;;;;;5076993;28;20032;-67
2023/07/26 04:15:29;;;;;;;97.82;92.82;;;;;;;;;;5079712;28;20068;-67
2023/07/26 04:17:55;;;;;;;109.85;104.13;;;;;;;;;;5080076;28;20024;-67
2023/07/26 04:20:20;;;;;;;99.03;93.95;;;;;;;;;;5076669;28;20409;-69
2023/07/26 04:22:45;;;;;;;95.50;90.00;;;;;;;;;;5081267;28;20151;-73
2023/07/26 04:25:11;;;;;;;81.55;77.40;;;;;;;;;;5076725;28;20038;-68
2023/07/26 04:27:36;;;;;;;78.95;74.93;;;;;;;;;;5076144;28;20125;-67
2023/07/26 04:30:02;;;;;;;92.97;88.22;;;;;;;;;;5077332;28;20044;-67
2023/07/26 04:32:28;;;;;;;106.80;101.35;;;;;;;;;;5080002;28;20086;-73
2023/07/26 04:34:53;;;;;;;99.72;94.55;;;;;;;;;;5078678;28;20046;-69
2023/07/26 04:37:18;;;;;;;98.90;93.82;;;;;;;;;;5077544;28;20059;-69
2023/07/26 04:39:45;;;;;;;115.35;109.40;;;;;;;;;;5078466;28;20058;-73
2023/07/26 04:42:11;;;;;;;116.88;110.82;;;;;;;;;;5074783;28;20039;-72
2023/07/26 04:44:36;;;;;;;108.20;102.65;;;;;;;;;;5077005;28;20438;-73
2023/07/26 04:47:02;;;;;;;96.60;91.63;;;;;;;;;;5077424;28;20501;-72
2023/07/26 04:49:27;;;;;;;97.50;92.53;;;;;;;;;;5077997;28;20046;-72
2023/07/26 04:51:52;;;;;;;103.32;98.03;;;;;;;;;;5080386;28;20073;-72
2023/07/26 04:54:18;;;;;;;108.95;103.35;;;;;;;;;;5079821;28;20070;-72
2023/07/26 04:56:43;;;;;;;103.90;98.55;;;;;;;;;;5076211;28;20056;-72
2023/07/26 04:59:08;;;;;;;102.68;97.35;;;;;;;;;;5074672;28;20039;-72
2023/07/26 05:01:34;;;;;;;95.78;90.88;;;;;;;;;;5076947;28;20423;-72
2023/07/26 05:03:59;;;;;;;89.78;85.13;;;;;;;;;;5076679;28;20036;-72
2023/07/26 05:06:25;;;;;;;105.22;99.78;;;;;;;;;;5077518;28;20586;-71
2023/07/26 05:08:51;;;;;;;113.28;107.28;;;;;;;;;;5076348;28;20119;-71
2023/07/26 05:11:20;;;;;;;107.47;101.88;;;;;;;;;;5073743;28;20032;-72
2023/07/26 05:13:46;;;;;;;100.13;94.95;;;;;;;;;;5076246;28;20051;-71
2023/07/26 05:16:11;;;;;;;94.80;89.97;;;;;;;;;;5077633;28;20036;-72
2023/07/26 05:18:37;;;;;;;89.18;84.60;;;;;;;;;;5075869;28;20326;-72
2023/07/26 05:21:02;;;;;;;85.63;81.25;;;;;;;;;;5073666;28;20075;-72
2023/07/26 05:23:28;;;;;;;88.70;84.13;;;;;;;;;;5077474;28;20089;-72
2023/07/26 05:25:53;;;;;;;84.88;80.57;;;;;;;;;;5077499;28;20098;-71
2023/07/26 05:28:18;;;;;;;91.53;86.85;;;;;;;;;;5077389;28;20039;-72
2023/07/26 05:30:44;;;;;;;88.07;83.57;;;;;;;;;;5078827;28;20158;-71
2023/07/26 05:33:09;;;;;;;98.50;93.30;;;;;;;;;;5080178;28;20042;-72
2023/07/26 05:35:35;;;;;;;103.80;98.45;;;;;;;;;;5079685;28;20092;-71
2023/07/26 05:38:01;;;;;;;102.28;96.97;;;;;;;;;;5075526;28;20024;-71
2023/07/26 05:40:27;;;;;;;108.53;102.97;;;;;;;;;;5081541;28;20032;-71
2023/07/26 05:42:55;;;;;;;101.50;96.32;;;;;;;;;;5079354;28;20054;-71
2023/07/26 05:45:21;;;;;;;105.40;99.97;;;;;;;;;;5078760;28;20059;-71
2023/07/26 05:47:46;;;;;;;131.02;124.32;;;;;;;;;;5076437;28;20062;-70
2023/07/26 05:50:12;;;;;;;117.65;111.55;;;;;;;;;;5076891;28;20529;-70
2023/07/26 05:52:38;;;;;;;104.03;98.40;;;;;;;;;;5076213;28;20468;-70
2023/07/26 05:55:04;;;;;;;103.15;97.90;;;;;;;;;;5077934;28;20035;-70
2023/07/26 05:57:29;;;;;;;122.68;116.30;;;;;;;;;;5077148;28;20037;-70
2023/07/26 05:59:55;;;;;;;91.00;86.35;;;;;;;;;;5077864;28;20036;-70
2023/07/26 06:02:20;;;;;;;93.88;89.03;;;;;;;;;;5077980;28;20089;-70
2023/07/26 06:04:46;;;;;;;65.82;62.47;;;;;;;;;;5075939;28;20028;-70
2023/07/26 06:07:12;;;;;;;60.88;57.78;;;;;;;;;;5076596;28;20060;-72
2023/07/26 06:09:37;;;;;;;86.55;82.15;;;;;;;;;;5074803;28;20036;-70
2023/07/26 06:12:03;;;;;;;93.82;89.05;;;;;;;;;;5079432;28;20480;-71
2023/07/26 06:14:29;;;;;;;73.32;69.63;;;;;;;;;;5076900;28;20409;-71
2023/07/26 06:16:55;;;;;;;91.20;86.57;;;;;;;;;;5070185;28;20113;-67
2023/07/26 06:19:22;;;;;;;97.88;92.97;;;;;;;;;;5074554;28;20071;-72
2023/07/26 06:21:47;;;;;;;81.70;77.57;;;;;;;;;;5078105;28;20040;-67
2023/07/26 06:24:13;;;;;;;112.43;106.75;;;;;;;;;;5075253;28;20074;-70
2023/07/26 06:26:38;;;;;;;57.97;54.95;;;;;;;;;;5080728;28;20040;-70
2023/07/26 06:29:04;;;;;;;86.90;82.50;;;;;;;;;;5096673;27;20036;-71
2023/07/26 06:31:30;;;;;;;70.82;67.28;;;;;;;;;;5078539;28;20665;-70
2023/07/26 06:33:55;;;;;;;66.85;63.47;;;;;;;;;;5077676;28;20064;-66
2023/07/26 06:36:20;;;;;;;61.38;58.28;;;;;;;;;;5074272;28;20060;-66
2023/07/26 06:38:46;;;;;;;76.38;72.53;;;;;;;;;;5078394;28;20027;-67
2023/07/26 06:41:12;;;;;;;69.45;66.00;;;;;;;;;;5075840;28;20044;-67
2023/07/26 06:43:38;;;;;;;63.97;60.72;;;;;;;;;;5078475;28;20075;-66
2023/07/26 06:46:04;;;;;;;73.93;70.22;;;;;;;;;;5076719;28;20056;-66
2023/07/26 06:48:29;;;;;;;86.22;81.85;;;;;;;;;;5072760;28;20579;-71
2023/07/26 06:50:54;;;;;;;81.18;77.07;;;;;;;;;;5077761;28;20043;-71
2023/07/26 06:53:20;;;;;;;78.00;74.13;;;;;;;;;;5079056;28;20033;-71
2023/07/26 06:55:45;;;;;;;85.88;81.55;;;;;;;;;;5075213;28;20066;-66
2023/07/26 06:58:11;;;;;;;39.28;37.28;;;;;;;;;;5076567;28;20452;-66
2023/07/26 07:00:36;;;;;;;29.40;27.85;;;;;;;;;;5075844;28;20127;-66
2023/07/26 07:03:03;;;;;;;70.75;67.18;;;;;;;;;;5076359;28;20211;-66
2023/07/26 07:05:30;;;;;;;91.40;86.78;;;;;;;;;;5076597;28;20104;-66
2023/07/26 07:07:56;;;;;;;65.68;62.35;;;;;;;;;;5080352;28;20046;-70
2023/07/26 07:10:22;;;;;;;72.47;68.78;;;;;;;;;;5081625;28;20040;-72
2023/07/26 07:12:48;;;;;;;49.60;47.10;;;;;;;;;;5070318;28;20097;-69
2023/07/26 07:15:14;;;;;;;49.05;46.58;;;;;;;;;;5076246;28;20032;-68
2023/07/26 07:17:39;;;;;;;61.85;58.72;;;;;;;;;;5080042;28;20507;-66
2023/07/26 07:20:07;;;;;;;57.10;54.22;;;;;;;;;;5080208;28;20038;-66
2023/07/26 07:22:33;;;;;;;59.22;56.25;;;;;;;;;;5073370;28;20508;-67
2023/07/26 07:24:59;;;;;;;63.92;60.65;;;;;;;;;;5074992;28;20064;-67
2023/07/26 07:27:24;;;;;;;75.72;71.85;;;;;;;;;;5079058;28;20068;-67
2023/07/26 07:29:50;;;;;;;89.53;85.05;;;;;;;;;;5079201;28;20059;-67
2023/07/26 07:32:16;;;;;;;100.65;95.57;;;;;;;;;;5080406;28;20046;-67
2023/07/26 07:34:42;;;;;;;111.90;106.28;;;;;;;;;;5079323;28;20036;-67
2023/07/26 07:37:08;;;;;;;54.30;51.55;;;;;;;;;;5078366;28;20040;-67
2023/07/26 07:39:33;;;;;;;49.42;46.83;;;;;;;;;;5078006;28;20031;-67
2023/07/26 07:41:59;;;;;;;118.68;112.78;;;;;;;;;;5080089;28;20032;-67
2023/07/26 07:44:26;;;;;;;31.25;29.65;;;;;;;;;;5081421;28;20037;-67
2023/07/26 07:46:51;;;;;;;40.75;38.55;;;;;;;;;;5066631;28;20024;-66
2023/07/26 07:49:17;;;;;;;27.13;25.42;;;;;;;;;;5081446;28;20071;-67
2023/07/26 07:51:42;;;;;;;53.00;50.30;;;;;;;;;;5074822;28;20028;-67
2023/07/26 07:54:08;;;;;;;14.15;13.35;;;;;;;;;;5078057;28;20036;-67
2023/07/26 07:56:33;;;;;;;13.25;12.45;;;;;;;;;;5077579;28;20054;-68
2023/07/26 07:58:58;;;;;;;11.95;11.15;;;;;;;;;;5080175;28;20094;-67
2023/07/26 08:01:24;;;;;;;10.48;9.88;;;;;;;;;;5076832;28;20304;-67
2023/07/26 08:03:49;;;;;;;11.15;10.35;;;;;;;;;;5077154;28;20050;-67
2023/07/26 08:06:15;;;;;;;12.30;11.60;;;;;;;;;;5074732;28;20032;-67
2023/07/26 08:08:40;;;;;;;12.73;11.93;;;;;;;;;;5075349;28;20099;-67
2023/07/26 08:11:06;;;;;;;13.13;12.32;;;;;;;;;;5078001;28;20040;-68
2023/07/26 08:13:33;;;;;;;14.68;13.80;;;;;;;;;;5080621;28;20035;-68
2023/07/26 08:15:58;;;;;;;14.48;13.57;;;;;;;;;;5079192;28;20032;-71
2023/07/26 08:18:24;;;;;;;17.67;16.67;;;;;;;;;;5077149;28;20116;-71
2023/07/26 08:20:49;;;;;;;20.20;19.10;;;;;;;;;;5081402;28;20032;-71
2023/07/26 08:23:14;;;;;;;20.45;19.35;;;;;;;;;;5075970;28;20024;-70
2023/07/26 08:25:40;;;;;;;19.40;18.30;;;;;;;;;;5083501;28;20066;-67
2023/07/26 08:28:06;;;;;;;22.40;21.20;;;;;;;;;;5081955;28;20055;-67
2023/07/26 08:30:31;;;;;;;11.25;10.55;;;;;;;;;;5074770;28;20164;-67
2023/07/26 08:32:57;;;;;;;11.45;10.75;;;;;;;;;;5086861;28;20100;-69
2023/07/26 08:35:22;;;;;;;12.55;11.75;;;;;;;;;;5075637;28;20047;-70
2023/07/26 08:37:48;;;;;;;11.98;11.20;;;;;;;;;;5076569;28;20060;-71
2023/07/26 08:40:13;;;;;;;18.92;17.83;;;;;;;;;;5074149;28;20404;-69
2023/07/26 08:42:39;;;;;;;11.32;10.63;;;;;;;;;;5077829;28;20074;-71
2023/07/26 08:45:06;;;;;;;11.35;10.65;;;;;;;;;;5076052;28;20633;-70
2023/07/26 08:47:34;;;;;;;12.82;12.02;;;;;;;;;;5076961;28;20028;-72
2023/07/26 08:49:59;;;;;;;11.35;10.65;;;;;;;;;;5077117;28;20043;-71
2023/07/26 08:52:26;;;;;;;11.88;11.18;;;;;;;;;;5081218;28;20221;-71
2023/07/26 08:54:52;;;;;;;12.50;11.77;;;;;;;;;;5080677;28;20107;-72
2023/07/26 08:57:18;;;;;;;12.27;11.48;;;;;;;;;;5076509;28;20159;-71
2023/07/26 08:59:43;;;;;;;12.55;11.85;;;;;;;;;;5080365;28;20434;-71
2023/07/26 09:02:11;;;;;;;12.80;12.00;;;;;;;;;;5076534;28;20450;-69
2023/07/26 09:04:36;;;;;;;16.38;15.40;;;;;;;;;;5078134;28;20115;-70
2023/07/26 09:07:05;;;;;;;12.43;11.73;;;;;;;;;;5076733;28;20452;-69
2023/07/26 09:09:35;;;;;;;12.90;12.10;;;;;;;;;;5067844;28;20024;-72
2023/07/26 09:12:01;;;;;;;12.10;11.40;;;;;;;;;;5077078;28;20028;-72
2023/07/26 09:14:27;;;;;;;30.60;29.00;;;;;;;;;;5078602;28;20390;-71
2023/07/26 09:17:00;;;;;;;29.00;27.48;;;;;;;;;;5077893;28;20071;-71
2023/07/26 09:19:29;;;;;;;23.88;22.58;;;;;;;;;;5076561;28;20036;-72
2023/07/26 09:22:04;;;;;;;15.52;14.55;;;;;;;;;;5077134;28;20048;-71
2023/07/26 09:24:39;;;;;;;24.20;22.90;;;;;;;;;;5082140;28;20063;-72
2023/07/26 09:27:10;;;;;;;25.95;24.55;;;;;;;;;;5078520;28;20055;-68
2023/07/26 09:29:38;;;;;;;36.50;34.55;;;;;;;;;;5074576;28;20036;-70
2023/07/26 09:32:05;;;;;;;39.33;37.33;;;;;;;;;;5078962;28;20028;-69
2023/07/26 09:34:30;;;;;;;41.35;39.15;;;;;;;;;;5073029;28;20102;-69
2023/07/26 09:36:57;;;;;;;19.90;18.80;;;;;;;;;;5077097;28;20107;-69
2023/07/26 09:39:27;;;;;;;19.27;18.17;;;;;;;;;;5078621;28;20121;-70
2023/07/26 09:42:08;;;;;;;18.77;17.13;;;;;;;;;;5074461;28;20032;-70
2023/07/26 09:44:35;;;;;;;24.10;22.80;;;;;;;;;;5075356;28;20128;-70
2023/07/26 09:47:02;;;;;;;18.58;17.58;;;;;;;;;;5076226;28;20020;-70
2023/07/26 09:49:29;;;;;;;17.55;16.55;;;;;;;;;;5076767;28;20078;-70
2023/07/26 09:51:58;;;;;;;18.88;17.88;;;;;;;;;;5077830;28;20056;-70
2023/07/26 09:54:30;;;;;;;17.52;16.52;;;;;;;;;;5075868;28;20121;-68
2023/07/26 09:56:57;;;;;;;21.30;20.13;;;;;;;;;;5075740;28;20036;-68
2023/07/26 09:59:25;;;;;;;16.77;15.85;;;;;;;;;;5077430;28;20043;-70
2023/07/26 10:01:52;;;;;;;19.15;18.10;;;;;;;;;;5077440;28;20417;-69
2023/07/26 10:04:50;;;;;;;28.60;27.10;;;;;;;;;;5078645;28;20051;-69
2023/07/26 10:07:16;;;;;;;18.08;17.05;;;;;;;;;;5074062;28;20045;-68
2023/07/26 10:09:46;;;;;;;29.75;28.15;;;;;;;;;;5075722;28;20032;-69
2023/07/26 10:12:13;;;;;;;15.85;14.95;;;;;;;;;;5077607;28;20051;-69
2023/07/26 10:14:39;;;;;;;42.95;40.80;;;;;;;;;;5076946;28;20032;-66
2023/07/26 10:17:05;;;;;;;18.10;17.10;;;;;;;;;;5075498;28;20041;-66
2023/07/26 10:19:31;;;;;;;103.40;98.30;;;;;;;;;;5077581;28;20062;-66
2023/07/26 10:21:57;;;;;;;57.83;54.90;;;;;;;;;;5077297;28;20501;-66
2023/07/26 10:24:23;;;;;;;23.02;21.70;;;;;;;;;;5074552;28;20040;-66
2023/07/26 10:26:50;;;;;;;65.72;62.42;;;;;;;;;;5075510;28;20102;-68
2023/07/26 10:29:19;;;;;;;68.72;65.13;;;;;;;;;;5076394;28;20090;-67
2023/07/26 10:31:45;;;;;;;44.00;41.75;;;;;;;;;;5075485;28;20048;-66
2023/07/26 10:34:20;;;;;;;24.90;23.58;;;;;;;;;;5073969;28;20362;-66
2023/07/26 10:36:45;;;;;;;16.20;15.30;;;;;;;;;;5082452;28;20032;-68
2023/07/26 10:39:12;;;;;;;24.45;23.15;;;;;;;;;;5074938;28;20032;-66
2023/07/26 10:41:47;;;;;;;17.60;16.60;;;;;;;;;;5076335;28;20035;-65
2023/07/26 10:44:12;;;;;;;13.98;13.18;;;;;;;;;;5074961;28;20217;-67
2023/07/26 10:46:48;;;;;;;16.20;15.13;;;;;;;;;;5074961;28;20708;-67
2023/07/26 10:49:18;;;;;;;19.27;18.17;;;;;;;;;;5076862;28;20399;-67
2023/07/26 10:51:58;;;;;;;17.33;16.35;;;;;;;;;;5076994;28;20032;-67
2023/07/26 10:54:34;;;;;;;;;;;;;;;;;;5075452;28;20028;-67
2023/07/26 10:57:13;;;;;;;22.52;21.33;;;;;;;;;;5073572;28;19916;-68
2023/07/26 11:00:11;;;;;;;25.50;24.17;;;;;;;;;;5071806;28;20654;-68
2023/07/26 11:02:43;;;;;;;28.40;26.90;;;;;;;;;;5068379;28;20042;-67
2023/07/26 11:05:19;;;;;;;29.52;27.98;;;;;;;;;;5083047;28;20732;-67
2023/07/26 11:07:52;;;;;;;13.32;12.52;;;;;;;;;;5073754;28;20540;-67
2023/07/26 11:10:23;;;;;;;12.52;11.82;;;;;;;;;;5074221;28;20036;-67
2023/07/26 11:13:10;;;;;;;13.88;13.07;;;;;;;;;;5078987;28;20053;-68
2023/07/26 11:15:46;;;;;;;19.45;18.25;;;;;;;;;;5072382;28;20051;-68
2023/07/26 11:18:14;;;;;;;35.13;33.30;;;;;;;;;;5075196;28;20354;-68
2023/07/26 11:20:43;;;;;;;29.60;27.98;;;;;;;;;;5077710;28;20035;-71
2023/07/26 11:23:19;;;;;;;101.07;96.07;;;;;;;;;;5071907;28;20090;-69
2023/07/26 11:25:46;;;;;;;72.40;68.80;;;;;;;;;;5077045;28;20024;-72
2023/07/26 11:28:13;;;;;;;88.07;83.72;;;;;;;;;;5074073;28;20043;-73
2023/07/26 11:30:39;;;;;;;74.53;70.82;;;;;;;;;;5073422;28;20066;-72
2023/07/26 11:33:05;;;;;;;103.95;98.85;;;;;;;;;;5075345;28;20028;-71
2023/07/26 11:35:41;;;;;;;83.10;79.00;;;;;;;;;;5074170;28;20103;-71
2023/07/26 11:38:07;;;;;;;63.25;60.05;;;;;;;;;;5078401;28;20039;-71
2023/07/26 11:40:43;;;;;;;80.97;77.00;;;;;;;;;;5074853;28;20385;-68
2023/07/26 11:43:09;;;;;;;60.20;57.20;;;;;;;;;;5076708;28;20586;-69
2023/07/26 11:45:41;;;;;;;50.28;47.50;;;;;;;;;;5073902;28;20050;-70
2023/07/26 11:48:09;;;;;;;56.72;53.67;;;;;;;;;;5075991;28;20029;-71
2023/07/26 11:50:35;;;;;;;39.72;37.70;;;;;;;;;;5078730;28;20476;-70
2023/07/26 11:53:05;;;;;;;19.85;18.75;;;;;;;;;;5077160;28;20059;-70
2023/07/26 11:55:32;;;;;;;18.77;17.75;;;;;;;;;;5069565;28;20048;-68
2023/07/26 11:58:04;;;;;;;27.38;25.88;;;;;;;;;;5072788;28;20071;-67
2023/07/26 12:00:35;;;;;;;26.70;25.27;;;;;;;;;;5073159;28;20521;-66
2023/07/26 12:03:01;;;;;;;;;;;;;;;;;;5075018;28;20105;-67
2023/07/26 12:05:28;;;;;;;19.73;18.65;;;;;;;;;;5072389;28;19912;-66
2023/07/26 12:07:57;;;;;;;14.10;13.30;;;;;;;;;;5069768;28;20041;-67
2023/07/26 12:10:34;;;;;;;12.27;11.50;;;;;;;;;;5071727;28;20201;-67
2023/07/26 12:13:08;;;;;;;12.48;11.68;;;;;;;;;;5078180;28;20037;-67
2023/07/26 12:15:53;;;;;;;13.13;12.05;;;;;;;;;;5073914;28;20032;-67
2023/07/26 12:18:19;;;;;;;11.80;11.10;;;;;;;;;;5076192;28;20046;-67
2023/07/26 12:21:01;;;;;;;11.43;10.73;;;;;;;;;;5075518;28;20043;-67
2023/07/26 12:23:29;;;;;;;14.85;14.00;;;;;;;;;;5076086;28;20179;-68
2023/07/26 12:25:57;;;;;;;19.33;18.27;;;;;;;;;;5076492;28;20024;-68
2023/07/26 12:28:24;;;;;;;34.03;31.92;;;;;;;;;;5078888;28;20036;-67
2023/07/26 12:30:57;;;;;;;16.50;15.60;;;;;;;;;;5065928;28;20079;-67
2023/07/26 12:33:24;;;;;;;16.30;15.40;;;;;;;;;;5078576;28;20107;-65
2023/07/26 12:35:54;;;;;;;14.18;13.38;;;;;;;;;;5076747;28;20086;-69
2023/07/26 12:38:22;;;;;;;13.82;12.93;;;;;;;;;;5074794;28;20035;-66
2023/07/26 12:40:48;;;;;;;18.20;17.20;;;;;;;;;;5076873;28;20040;-66
2023/07/26 12:43:30;;;;;;;14.48;13.10;;;;;;;;;;5077252;28;20051;-66
2023/07/26 12:45:57;;;;;;;65.80;62.53;;;;;;;;;;5075120;28;20028;-65
2023/07/26 12:48:23;;;;;;;46.80;44.42;;;;;;;;;;5075621;28;20044;-67
2023/07/26 12:50:53;;;;;;;29.58;28.02;;;;;;;;;;5079768;28;20051;-66
2023/07/26 12:53:20;;;;;;;77.35;73.53;;;;;;;;;;5078391;28;20024;-67
2023/07/26 12:55:45;;;;;;;82.85;78.75;;;;;;;;;;5076165;28;20024;-66
2023/07/26 12:58:10;;;;;;;84.97;80.80;;;;;;;;;;5076605;28;20098;-66
2023/07/26 13:00:36;;;;;;;61.80;58.70;;;;;;;;;;5081609;28;20577;-66
2023/07/26 13:03:02;;;;;;;51.28;48.70;;;;;;;;;;5078448;28;20041;-66
2023/07/26 13:05:27;;;;;;;38.28;36.33;;;;;;;;;;5078461;28;20043;-66
2023/07/26 13:07:53;;;;;;;56.20;53.40;;;;;;;;;;5079207;28;20036;-67
2023/07/26 13:10:20;;;;;;;31.70;30.08;;;;;;;;;;5078803;28;20032;-66
2023/07/26 13:12:46;;;;;;;39.20;37.20;;;;;;;;;;5077462;28;20039;-66
2023/07/26 13:15:11;;;;;;;37.03;35.13;;;;;;;;;;5080238;28;20378;-67
2023/07/26 13:17:37;;;;;;;34.53;32.75;;;;;;;;;;5078361;28;20107;-66
2023/07/26 13:20:02;;;;;;;36.03;34.20;;;;;;;;;;5072627;28;20115;-65
2023/07/26 13:22:29;;;;;;;40.33;38.28;;;;;;;;;;5078691;28;20064;-65
2023/07/26 13:24:54;;;;;;;41.05;38.95;;;;;;;;;;5077306;28;20044;-66
2023/07/26 13:27:19;;;;;;;38.05;36.10;;;;;;;;;;5076848;28;20031;-65
2023/07/26 13:29:45;;;;;;;34.72;32.95;;;;;;;;;;5078674;28;20042;-67
2023/07/26 13:32:10;;;;;;;42.83;40.63;;;;;;;;;;5078436;28;20024;-71
2023/07/26 13:34:35;;;;;;;39.10;37.10;;;;;;;;;;5078127;28;20072;-71
2023/07/26 13:37:01;;;;;;;42.47;40.30;;;;;;;;;;5078035;28;20111;-71
2023/07/26 13:39:26;;;;;;;40.67;38.60;;;;;;;;;;5074405;28;20032;-70
2023/07/26 13:41:52;;;;;;;39.80;37.78;;;;;;;;;;5073240;28;20032;-69
2023/07/26 13:44:17;;;;;;;37.42;35.53;;;;;;;;;;5078354;28;20101;-70
2023/07/26 13:46:44;;;;;;;29.77;28.20;;;;;;;;;;5075875;28;20028;-72
2023/07/26 13:49:09;;;;;;;33.55;31.83;;;;;;;;;;5073667;28;20027;-64
2023/07/26 13:51:37;;;;;;;45.55;43.25;;;;;;;;;;5071422;28;20492;-66
2023/07/26 13:54:02;;;;;;;27.90;26.45;;;;;;;;;;5075493;28;20036;-65
2023/07/26 13:56:28;;;;;;;53.63;50.90;;;;;;;;;;5079201;28;20502;-67
2023/07/26 13:58:53;;;;;;;39.03;36.92;;;;;;;;;;5081416;28;20277;-69
2023/07/26 14:01:19;;;;;;;41.95;39.83;;;;;;;;;;5076493;28;20534;-67
2023/07/26 14:03:44;;;;;;;32.72;31.02;;;;;;;;;;5074704;28;20039;-69
2023/07/26 14:06:09;;;;;;;55.80;53.00;;;;;;;;;;5072686;28;20040;-68
2023/07/26 14:08:35;;;;;;;70.53;66.93;;;;;;;;;;5079541;28;20051;-68
2023/07/26 14:11:00;;;;;;;76.65;72.85;;;;;;;;;;5079690;28;20115;-67